North Augusta, SC (29860)

6:44 AM EDT on August 28, 2015 (GMT -0400)
Merriwether | | Change Station
CLOSE
Current Station
Personal Weather Station
Location: North Augusta, SC
Elevation: 499 ft
Nearby Weather Stations

Elev 499 ft 33.60 °N, 81.98 °W | Updated 4 minutes ago

Partly Cloudy
Partly Cloudy
67.5 °F
Feels Like 67.5 °F
N
0.0
Wind Variable Wind from North
Gusts 0.0 mph

Today
High -- | Low -- °F
--% Chance of Precip.
Yesterday
High -- | Low -- °F
Precip. -- in
6:58 AM 7:58 PM
Waxing Gibbous, 97% visible
Pressure 30.09 in
Visibility 10.0 miles
Clouds Overcast 700 ft
Dew Point 60 °F
Humidity 76%
Rainfall 0.00 in
Snow Depth Not available.
UV 0 out of 12
Pollen 7.30 out of 12
Air Quality Not available.
Flu Activity Not available.
SPECI KDNL 281030Z AUTO 07005KT 10SM OVC007 22/19 A3009 RMK AO2 T02170194
Pressure 30.09 in
Visibility 10.0 miles
Clouds Overcast 700 ft
Dew Point 60 °F
Humidity 76%
Rainfall 0.00 in
Snow Depth Not available.
UV 0 out of 12
Pollen 7.30 out of 12
Air Quality Not available.
Flu Activity Not available.
SPECI KDNL 281030Z AUTO 07005KT 10SM OVC007 22/19 A3009 RMK AO2 T02170194

10-Day Weather Forecast

×

Almanac

Astronomy

Aug. 28, 2015 Rise Set
Actual Time
Civil Twilight
Nautical Twilight
Astronomical Twilight
Moon
Length of Visible Light
Length of Day
Tomorrow will be .
, % of the Moon is Illuminated

Today's Extremes

State Highs State Lows

Community

WunderPhotos

Upload Photos

1,850,368 photos uploaded!

WunderBlogs® & News

Nearby

Air Quality

  Air Quality AQ Index Pollutant
Not available.

Snow Depth

Station Depth Elevation

Earthquake Activity

City Distance Mag. Time & Date
Minimum magnitude displayed is 2.5.

Coastal Water Temperatures

Place Temperature

Stations

Nearby Weather Stations

Station Location Temp. Windchill Dew Point Humidity Wind Precip. Elev Updated Type